sensor_id;sensor_type;location;lat;lon;timestamp;temperature;humidity
15394;DHT22;7795;47.986;11.868;2023-04-25T00:00:26;11.00;68.20
15394;DHT22;7795;47.986;11.868;2023-04-25T00:02:53;11.00;68.20
15394;DHT22;7795;47.986;11.868;2023-04-25T00:05:22;11.00;68.40
15394;DHT22;7795;47.986;11.868;2023-04-25T00:07:48;11.00;68.40
15394;DHT22;7795;47.986;11.868;2023-04-25T00:10:14;10.90;68.40
15394;DHT22;7795;47.986;11.868;2023-04-25T00:12:40;10.90;68.40
15394;DHT22;7795;47.986;11.868;2023-04-25T00:15:07;10.90;68.50
15394;DHT22;7795;47.986;11.868;2023-04-25T00:17:33;10.90;68.60
15394;DHT22;7795;47.986;11.868;2023-04-25T00:20:02;10.90;68.60
15394;DHT22;7795;47.986;11.868;2023-04-25T00:22:30;10.90;68.80
15394;DHT22;7795;47.986;11.868;2023-04-25T00:24:56;10.90;68.80
15394;DHT22;7795;47.986;11.868;2023-04-25T00:27:25;10.90;68.90
15394;DHT22;7795;47.986;11.868;2023-04-25T00:29:51;10.90;68.90
15394;DHT22;7795;47.986;11.868;2023-04-25T00:32:16;10.90;68.90
15394;DHT22;7795;47.986;11.868;2023-04-25T00:34:42;10.90;69.10
15394;DHT22;7795;47.986;11.868;2023-04-25T00:37:09;10.90;69.10
15394;DHT22;7795;47.986;11.868;2023-04-25T00:39:36;10.90;69.20
15394;DHT22;7795;47.986;11.868;2023-04-25T00:42:02;10.90;69.20
15394;DHT22;7795;47.986;11.868;2023-04-25T00:44:29;10.90;69.20
15394;DHT22;7795;47.986;11.868;2023-04-25T00:46:55;10.80;69.20
15394;DHT22;7795;47.986;11.868;2023-04-25T00:49:21;10.90;69.20
15394;DHT22;7795;47.986;11.868;2023-04-25T00:51:47;10.80;69.40
15394;DHT22;7795;47.986;11.868;2023-04-25T00:54:14;10.90;69.40
15394;DHT22;7795;47.986;11.868;2023-04-25T00:56:41;10.80;69.40
15394;DHT22;7795;47.986;11.868;2023-04-25T00:59:08;10.90;69.40
15394;DHT22;7795;47.986;11.868;2023-04-25T01:01:35;10.90;70.30
15394;DHT22;7795;47.986;11.868;2023-04-25T01:04:01;10.90;69.50
15394;DHT22;7795;47.986;11.868;2023-04-25T01:06:27;10.90;69.60
15394;DHT22;7795;47.986;11.868;2023-04-25T01:08:53;10.90;69.70
15394;DHT22;7795;47.986;11.868;2023-04-25T01:11:21;10.90;69.70
15394;DHT22;7795;47.986;11.868;2023-04-25T01:13:47;10.90;69.80
15394;DHT22;7795;47.986;11.868;2023-04-25T01:16:13;10.90;69.80
15394;DHT22;7795;47.986;11.868;2023-04-25T01:18:39;10.90;69.70
15394;DHT22;7795;47.986;11.868;2023-04-25T01:21:09;10.90;69.80
15394;DHT22;7795;47.986;11.868;2023-04-25T01:23:35;10.90;70.70
15394;DHT22;7795;47.986;11.868;2023-04-25T01:26:01;10.90;69.80
15394;DHT22;7795;47.986;11.868;2023-04-25T01:28:28;10.90;69.80
15394;DHT22;7795;47.986;11.868;2023-04-25T01:30:54;10.90;69.80
15394;DHT22;7795;47.986;11.868;2023-04-25T01:33:21;10.90;69.80
15394;DHT22;7795;47.986;11.868;2023-04-25T01:35:47;10.90;69.80
15394;DHT22;7795;47.986;11.868;2023-04-25T01:38:14;10.90;70.00
15394;DHT22;7795;47.986;11.868;2023-04-25T01:40:40;10.90;70.00
15394;DHT22;7795;47.986;11.868;2023-04-25T01:43:07;10.90;70.10
15394;DHT22;7795;47.986;11.868;2023-04-25T01:45:34;10.90;70.10
15394;DHT22;7795;47.986;11.868;2023-04-25T01:48:02;10.90;70.10
15394;DHT22;7795;47.986;11.868;2023-04-25T01:50:28;10.90;70.10
15394;DHT22;7795;47.986;11.868;2023-04-25T01:52:55;10.90;70.10
15394;DHT22;7795;47.986;11.868;2023-04-25T01:55:22;10.90;70.20
15394;DHT22;7795;47.986;11.868;2023-04-25T01:57:48;10.80;70.20
15394;DHT22;7795;47.986;11.868;2023-04-25T02:00:14;10.80;70.10
15394;DHT22;7795;47.986;11.868;2023-04-25T02:02:40;10.80;70.20
15394;DHT22;7795;47.986;11.868;2023-04-25T02:05:07;10.80;70.20
15394;DHT22;7795;47.986;11.868;2023-04-25T02:07:32;10.80;70.20
15394;DHT22;7795;47.986;11.868;2023-04-25T02:09:58;10.80;70.20
15394;DHT22;7795;47.986;11.868;2023-04-25T02:12:27;10.80;70.20
15394;DHT22;7795;47.986;11.868;2023-04-25T02:14:53;10.70;70.30
15394;DHT22;7795;47.986;11.868;2023-04-25T02:17:19;10.70;70.20
15394;DHT22;7795;47.986;11.868;2023-04-25T02:19:46;10.70;70.10
15394;DHT22;7795;47.986;11.868;2023-04-25T02:22:12;10.70;70.10
15394;DHT22;7795;47.986;11.868;2023-04-25T02:24:38;10.70;70.00
15394;DHT22;7795;47.986;11.868;2023-04-25T02:27:04;10.60;70.00
15394;DHT22;7795;47.986;11.868;2023-04-25T02:29:31;10.60;69.90
15394;DHT22;7795;47.986;11.868;2023-04-25T02:31:57;10.60;70.00
15394;DHT22;7795;47.986;11.868;2023-04-25T02:34:23;10.50;69.90
15394;DHT22;7795;47.986;11.868;2023-04-25T02:36:49;10.50;70.00
15394;DHT22;7795;47.986;11.868;2023-04-25T02:39:16;10.50;70.10
15394;DHT22;7795;47.986;11.868;2023-04-25T02:41:42;10.40;70.20
15394;DHT22;7795;47.986;11.868;2023-04-25T02:44:08;10.40;70.90
15394;DHT22;7795;47.986;11.868;2023-04-25T02:46:35;10.30;70.10
15394;DHT22;7795;47.986;11.868;2023-04-25T02:49:01;10.30;70.20
15394;DHT22;7795;47.986;11.868;2023-04-25T02:51:26;10.30;70.20
15394;DHT22;7795;47.986;11.868;2023-04-25T02:53:52;10.20;70.20
15394;DHT22;7795;47.986;11.868;2023-04-25T02:56:18;10.20;70.30
15394;DHT22;7795;47.986;11.868;2023-04-25T02:58:44;10.20;70.40
15394;DHT22;7795;47.986;11.868;2023-04-25T03:01:10;10.10;70.50
15394;DHT22;7795;47.986;11.868;2023-04-25T03:03:37;10.10;70.50
15394;DHT22;7795;47.986;11.868;2023-04-25T03:06:03;10.10;70.70
15394;DHT22;7795;47.986;11.868;2023-04-25T03:08:29;10.10;70.80
15394;DHT22;7795;47.986;11.868;2023-04-25T03:10:58;10.10;70.90
15394;DHT22;7795;47.986;11.868;2023-04-25T03:13:24;10.10;71.00
15394;DHT22;7795;47.986;11.868;2023-04-25T03:15:49;10.10;71.00
15394;DHT22;7795;47.986;11.868;2023-04-25T03:18:15;10.10;71.00
15394;DHT22;7795;47.986;11.868;2023-04-25T03:20:42;10.10;71.00
15394;DHT22;7795;47.986;11.868;2023-04-25T03:23:08;10.20;71.10
15394;DHT22;7795;47.986;11.868;2023-04-25T03:25:34;10.20;70.80
15394;DHT22;7795;47.986;11.868;2023-04-25T03:28:00;10.20;70.80
15394;DHT22;7795;47.986;11.868;2023-04-25T03:30:26;10.30;70.70
15394;DHT22;7795;47.986;11.868;2023-04-25T03:32:52;10.30;70.60
15394;DHT22;7795;47.986;11.868;2023-04-25T03:35:17;10.30;70.40
15394;DHT22;7795;47.986;11.868;2023-04-25T03:37:44;10.40;70.20
15394;DHT22;7795;47.986;11.868;2023-04-25T03:40:11;10.40;70.00
15394;DHT22;7795;47.986;11.868;2023-04-25T03:42:37;10.40;69.80
15394;DHT22;7795;47.986;11.868;2023-04-25T03:45:03;10.50;69.80
15394;DHT22;7795;47.986;11.868;2023-04-25T03:47:29;10.50;69.70
15394;DHT22;7795;47.986;11.868;2023-04-25T03:49:55;10.60;69.50
15394;DHT22;7795;47.986;11.868;2023-04-25T03:52:20;10.50;69.50
15394;DHT22;7795;47.986;11.868;2023-04-25T03:54:47;10.60;69.70
15394;DHT22;7795;47.986;11.868;2023-04-25T03:57:13;10.60;69.80
15394;DHT22;7795;47.986;11.868;2023-04-25T03:59:39;10.50;69.80
15394;DHT22;7795;47.986;11.868;2023-04-25T04:02:05;10.50;69.90
15394;DHT22;7795;47.986;11.868;2023-04-25T04:04:31;10.50;70.00
15394;DHT22;7795;47.986;11.868;2023-04-25T04:06:56;10.40;70.20
15394;DHT22;7795;47.986;11.868;2023-04-25T04:09:22;10.40;70.40
15394;DHT22;7795;47.986;11.868;2023-04-25T04:11:49;10.40;70.70
15394;DHT22;7795;47.986;11.868;2023-04-25T04:14:15;10.30;70.80
15394;DHT22;7795;47.986;11.868;2023-04-25T04:16:41;10.30;70.80
15394;DHT22;7795;47.986;11.868;2023-04-25T04:19:07;10.30;70.80
15394;DHT22;7795;47.986;11.868;2023-04-25T04:21:33;10.30;70.80
15394;DHT22;7795;47.986;11.868;2023-04-25T04:23:58;10.30;71.00
15394;DHT22;7795;47.986;11.868;2023-04-25T04:26:25;10.30;71.10
15394;DHT22;7795;47.986;11.868;2023-04-25T04:28:53;10.30;71.10
15394;DHT22;7795;47.986;11.868;2023-04-25T04:31:19;10.30;71.20
15394;DHT22;7795;47.986;11.868;2023-04-25T04:33:45;10.30;71.50
15394;DHT22;7795;47.986;11.868;2023-04-25T04:36:12;10.30;71.40
15394;DHT22;7795;47.986;11.868;2023-04-25T04:38:37;10.30;71.40
15394;DHT22;7795;47.986;11.868;2023-04-25T04:41:03;10.30;71.40
15394;DHT22;7795;47.986;11.868;2023-04-25T04:43:29;10.30;71.50
15394;DHT22;7795;47.986;11.868;2023-04-25T04:45:56;10.30;72.30
15394;DHT22;7795;47.986;11.868;2023-04-25T04:48:22;10.30;71.70
15394;DHT22;7795;47.986;11.868;2023-04-25T04:50:48;10.30;71.70
15394;DHT22;7795;47.986;11.868;2023-04-25T04:53:13;10.30;71.70
15394;DHT22;7795;47.986;11.868;2023-04-25T04:55:39;10.30;71.80
15394;DHT22;7795;47.986;11.868;2023-04-25T04:58:06;10.30;71.80
15394;DHT22;7795;47.986;11.868;2023-04-25T05:00:32;10.30;71.90
15394;DHT22;7795;47.986;11.868;2023-04-25T05:03:00;10.30;72.00
15394;DHT22;7795;47.986;11.868;2023-04-25T05:05:26;10.30;72.20
15394;DHT22;7795;47.986;11.868;2023-04-25T05:07:51;10.30;72.00
15394;DHT22;7795;47.986;11.868;2023-04-25T05:10:18;10.30;71.80
15394;DHT22;7795;47.986;11.868;2023-04-25T05:12:44;10.20;72.00
15394;DHT22;7795;47.986;11.868;2023-04-25T05:15:10;10.20;72.00
15394;DHT22;7795;47.986;11.868;2023-04-25T05:17:36;10.20;72.10
15394;DHT22;7795;47.986;11.868;2023-04-25T05:20:04;10.20;72.30
15394;DHT22;7795;47.986;11.868;2023-04-25T05:22:31;10.20;72.30
15394;DHT22;7795;47.986;11.868;2023-04-25T05:24:57;10.20;72.30
15394;DHT22;7795;47.986;11.868;2023-04-25T05:27:22;10.20;72.30
15394;DHT22;7795;47.986;11.868;2023-04-25T05:29:48;10.20;72.30
15394;DHT22;7795;47.986;11.868;2023-04-25T05:32:14;10.20;72.30
15394;DHT22;7795;47.986;11.868;2023-04-25T05:34:40;10.20;72.30
15394;DHT22;7795;47.986;11.868;2023-04-25T05:37:08;10.30;72.30
15394;DHT22;7795;47.986;11.868;2023-04-25T05:39:34;10.30;72.40
15394;DHT22;7795;47.986;11.868;2023-04-25T05:42:00;10.30;72.30
15394;DHT22;7795;47.986;11.868;2023-04-25T05:44:26;10.40;72.30
15394;DHT22;7795;47.986;11.868;2023-04-25T05:46:52;10.40;72.10
15394;DHT22;7795;47.986;11.868;2023-04-25T05:49:18;10.40;72.10
15394;DHT22;7795;47.986;11.868;2023-04-25T05:51:44;10.40;72.00
15394;DHT22;7795;47.986;11.868;2023-04-25T05:54:11;10.50;72.00
15394;DHT22;7795;47.986;11.868;2023-04-25T05:56:37;10.50;72.00
15394;DHT22;7795;47.986;11.868;2023-04-25T05:59:02;10.50;72.00
15394;DHT22;7795;47.986;11.868;2023-04-25T06:01:28;10.50;71.90
15394;DHT22;7795;47.986;11.868;2023-04-25T06:03:54;10.60;71.80
15394;DHT22;7795;47.986;11.868;2023-04-25T06:06:20;10.60;71.70
15394;DHT22;7795;47.986;11.868;2023-04-25T06:08:46;10.60;71.70
15394;DHT22;7795;47.986;11.868;2023-04-25T06:11:13;10.70;71.90
15394;DHT22;7795;47.986;11.868;2023-04-25T06:13:39;10.70;72.00
15394;DHT22;7795;47.986;11.868;2023-04-25T06:16:05;10.80;72.00
15394;DHT22;7795;47.986;11.868;2023-04-25T06:18:31;10.90;72.10
15394;DHT22;7795;47.986;11.868;2023-04-25T06:20:57;10.90;72.00
15394;DHT22;7795;47.986;11.868;2023-04-25T06:23:23;10.90;72.60
15394;DHT22;7795;47.986;11.868;2023-04-25T06:25:48;11.00;71.80
15394;DHT22;7795;47.986;11.868;2023-04-25T06:28:15;11.00;71.70
15394;DHT22;7795;47.986;11.868;2023-04-25T06:30:41;11.10;71.70
15394;DHT22;7795;47.986;11.868;2023-04-25T06:33:07;11.20;71.60
15394;DHT22;7795;47.986;11.868;2023-04-25T06:35:34;11.20;71.50
15394;DHT22;7795;47.986;11.868;2023-04-25T06:37:59;11.30;71.40
15394;DHT22;7795;47.986;11.868;2023-04-25T06:40:26;11.40;71.40
15394;DHT22;7795;47.986;11.868;2023-04-25T06:42:51;11.40;71.20
15394;DHT22;7795;47.986;11.868;2023-04-25T06:45:18;11.40;71.00
15394;DHT22;7795;47.986;11.868;2023-04-25T06:47:44;11.50;71.00
15394;DHT22;7795;47.986;11.868;2023-04-25T06:50:10;11.50;70.80
15394;DHT22;7795;47.986;11.868;2023-04-25T06:52:36;11.60;70.80
15394;DHT22;7795;47.986;11.868;2023-04-25T06:55:02;11.70;70.70
15394;DHT22;7795;47.986;11.868;2023-04-25T06:57:28;11.70;70.70
15394;DHT22;7795;47.986;11.868;2023-04-25T06:59:54;11.70;70.40
15394;DHT22;7795;47.986;11.868;2023-04-25T07:02:21;11.80;70.30
15394;DHT22;7795;47.986;11.868;2023-04-25T07:04:47;11.80;70.40
15394;DHT22;7795;47.986;11.868;2023-04-25T07:07:13;11.80;70.50
15394;DHT22;7795;47.986;11.868;2023-04-25T07:09:39;11.90;70.50
15394;DHT22;7795;47.986;11.868;2023-04-25T07:12:05;11.90;70.50
15394;DHT22;7795;47.986;11.868;2023-04-25T07:14:31;12.00;70.40
15394;DHT22;7795;47.986;11.868;2023-04-25T07:16:57;12.10;70.30
15394;DHT22;7795;47.986;11.868;2023-04-25T07:19:24;12.10;70.20
15394;DHT22;7795;47.986;11.868;2023-04-25T07:21:52;12.20;70.00
15394;DHT22;7795;47.986;11.868;2023-04-25T07:24:17;12.20;69.90
15394;DHT22;7795;47.986;11.868;2023-04-25T07:26:43;12.20;69.60
15394;DHT22;7795;47.986;11.868;2023-04-25T07:29:09;12.30;69.60
15394;DHT22;7795;47.986;11.868;2023-04-25T07:31:35;12.30;69.60
15394;DHT22;7795;47.986;11.868;2023-04-25T07:34:01;12.30;70.30
15394;DHT22;7795;47.986;11.868;2023-04-25T07:36:28;12.30;69.30
15394;DHT22;7795;47.986;11.868;2023-04-25T07:38:54;12.40;68.90
15394;DHT22;7795;47.986;11.868;2023-04-25T07:41:20;12.40;68.80
15394;DHT22;7795;47.986;11.868;2023-04-25T07:43:45;12.30;68.60
15394;DHT22;7795;47.986;11.868;2023-04-25T07:46:11;12.30;68.60
15394;DHT22;7795;47.986;11.868;2023-04-25T07:48:37;12.30;68.70
15394;DHT22;7795;47.986;11.868;2023-04-25T07:51:03;12.30;68.80
15394;DHT22;7795;47.986;11.868;2023-04-25T07:53:32;12.30;68.90
15394;DHT22;7795;47.986;11.868;2023-04-25T07:55:59;12.40;69.00
15394;DHT22;7795;47.986;11.868;2023-04-25T07:58:25;12.40;68.90
15394;DHT22;7795;47.986;11.868;2023-04-25T08:00:50;12.40;68.70
15394;DHT22;7795;47.986;11.868;2023-04-25T08:03:16;12.50;68.90
15394;DHT22;7795;47.986;11.868;2023-04-25T08:05:42;12.50;68.70
15394;DHT22;7795;47.986;11.868;2023-04-25T08:08:08;12.60;68.60
15394;DHT22;7795;47.986;11.868;2023-04-25T08:10:35;12.60;68.40
15394;DHT22;7795;47.986;11.868;2023-04-25T08:13:01;12.70;68.20
15394;DHT22;7795;47.986;11.868;2023-04-25T08:15:27;12.70;68.50
15394;DHT22;7795;47.986;11.868;2023-04-25T08:17:55;12.70;67.40
15394;DHT22;7795;47.986;11.868;2023-04-25T08:20:24;12.80;67.30
15394;DHT22;7795;47.986;11.868;2023-04-25T08:22:50;12.80;67.40
15394;DHT22;7795;47.986;11.868;2023-04-25T08:25:16;12.90;67.50
15394;DHT22;7795;47.986;11.868;2023-04-25T08:27:43;12.90;67.20
15394;DHT22;7795;47.986;11.868;2023-04-25T08:30:09;13.00;66.70
15394;DHT22;7795;47.986;11.868;2023-04-25T08:32:35;13.00;66.70
15394;DHT22;7795;47.986;11.868;2023-04-25T08:35:04;13.10;66.90
15394;DHT22;7795;47.986;11.868;2023-04-25T08:37:29;13.10;66.50
15394;DHT22;7795;47.986;11.868;2023-04-25T08:39:56;13.20;66.00
15394;DHT22;7795;47.986;11.868;2023-04-25T08:42:21;13.20;65.60
15394;DHT22;7795;47.986;11.868;2023-04-25T08:44:49;13.20;65.60
15394;DHT22;7795;47.986;11.868;2023-04-25T08:47:17;13.20;65.50
15394;DHT22;7795;47.986;11.868;2023-04-25T08:49:46;13.20;65.10
15394;DHT22;7795;47.986;11.868;2023-04-25T08:52:13;13.30;65.20
15394;DHT22;7795;47.986;11.868;2023-04-25T08:54:42;13.30;65.40
15394;DHT22;7795;47.986;11.868;2023-04-25T08:57:09;13.40;65.40
15394;DHT22;7795;47.986;11.868;2023-04-25T08:59:35;13.40;65.60
15394;DHT22;7795;47.986;11.868;2023-04-25T09:02:04;13.50;65.40
15394;DHT22;7795;47.986;11.868;2023-04-25T09:04:30;13.60;64.40
15394;DHT22;7795;47.986;11.868;2023-04-25T09:06:56;13.70;65.00
15394;DHT22;7795;47.986;11.868;2023-04-25T09:09:23;13.80;63.50
15394;DHT22;7795;47.986;11.868;2023-04-25T09:11:49;13.90;63.40
15394;DHT22;7795;47.986;11.868;2023-04-25T09:14:16;13.90;63.40
15394;DHT22;7795;47.986;11.868;2023-04-25T09:17:01;14.00;63.20
15394;DHT22;7795;47.986;11.868;2023-04-25T09:19:30;14.10;62.80
15394;DHT22;7795;47.986;11.868;2023-04-25T09:21:57;14.10;63.40
15394;DHT22;7795;47.986;11.868;2023-04-25T09:24:32;14.10;63.60
15394;DHT22;7795;47.986;11.868;2023-04-25T09:26:57;14.10;64.20
15394;DHT22;7795;47.986;11.868;2023-04-25T09:29:29;14.10;64.30
15394;DHT22;7795;47.986;11.868;2023-04-25T09:32:11;14.00;64.10
15394;DHT22;7795;47.986;11.868;2023-04-25T09:34:40;14.00;64.20
15394;DHT22;7795;47.986;11.868;2023-04-25T09:37:08;14.00;64.30
15394;DHT22;7795;47.986;11.868;2023-04-25T09:39:34;13.90;64.60
15394;DHT22;7795;47.986;11.868;2023-04-25T09:42:00;13.90;64.80
15394;DHT22;7795;47.986;11.868;2023-04-25T09:44:26;13.90;64.80
15394;DHT22;7795;47.986;11.868;2023-04-25T09:46:52;13.90;64.80
15394;DHT22;7795;47.986;11.868;2023-04-25T09:49:20;13.90;64.60
15394;DHT22;7795;47.986;11.868;2023-04-25T09:51:55;14.00;64.50
15394;DHT22;7795;47.986;11.868;2023-04-25T09:54:21;14.00;64.30
15394;DHT22;7795;47.986;11.868;2023-04-25T09:56:48;14.10;64.50
15394;DHT22;7795;47.986;11.868;2023-04-25T09:59:16;14.10;64.00
15394;DHT22;7795;47.986;11.868;2023-04-25T10:01:43;14.20;63.30
15394;DHT22;7795;47.986;11.868;2023-04-25T10:04:11;14.30;63.30
15394;DHT22;7795;47.986;11.868;2023-04-25T10:06:37;14.30;63.00
15394;DHT22;7795;47.986;11.868;2023-04-25T10:09:05;14.30;62.90
15394;DHT22;7795;47.986;11.868;2023-04-25T10:11:34;14.40;63.20
15394;DHT22;7795;47.986;11.868;2023-04-25T10:14:00;14.50;63.00
15394;DHT22;7795;47.986;11.868;2023-04-25T10:16:27;14.50;62.60
15394;DHT22;7795;47.986;11.868;2023-04-25T10:18:54;14.60;62.60
15394;DHT22;7795;47.986;11.868;2023-04-25T10:21:21;14.60;62.60
15394;DHT22;7795;47.986;11.868;2023-04-25T10:23:47;14.60;63.70
15394;DHT22;7795;47.986;11.868;2023-04-25T10:26:15;14.50;63.00
15394;DHT22;7795;47.986;11.868;2023-04-25T10:28:58;14.50;63.20
15394;DHT22;7795;47.986;11.868;2023-04-25T10:31:24;14.50;62.90
15394;DHT22;7795;47.986;11.868;2023-04-25T10:33:51;14.50;64.50
15394;DHT22;7795;47.986;11.868;2023-04-25T10:36:19;14.60;64.00
15394;DHT22;7795;47.986;11.868;2023-04-25T10:38:47;14.60;63.90
15394;DHT22;7795;47.986;11.868;2023-04-25T10:41:17;14.60;64.20
15394;DHT22;7795;47.986;11.868;2023-04-25T10:43:44;14.70;64.00
15394;DHT22;7795;47.986;11.868;2023-04-25T10:46:18;14.80;63.90
15394;DHT22;7795;47.986;11.868;2023-04-25T10:48:47;14.80;63.20
15394;DHT22;7795;47.986;11.868;2023-04-25T10:51:17;14.90;62.90
15394;DHT22;7795;47.986;11.868;2023-04-25T10:53:44;15.00;62.60
15394;DHT22;7795;47.986;11.868;2023-04-25T10:56:10;15.00;61.80
15394;DHT22;7795;47.986;11.868;2023-04-25T10:58:42;15.10;61.60
15394;DHT22;7795;47.986;11.868;2023-04-25T11:01:07;15.10;60.70
15394;DHT22;7795;47.986;11.868;2023-04-25T11:03:39;15.20;61.00
15394;DHT22;7795;47.986;11.868;2023-04-25T11:06:12;15.20;60.00
15394;DHT22;7795;47.986;11.868;2023-04-25T11:08:48;15.30;59.80
15394;DHT22;7795;47.986;11.868;2023-04-25T11:11:14;15.30;59.40
15394;DHT22;7795;47.986;11.868;2023-04-25T11:13:42;15.30;59.20
15394;DHT22;7795;47.986;11.868;2023-04-25T11:16:07;15.40;59.00
15394;DHT22;7795;47.986;11.868;2023-04-25T11:18:33;15.40;59.20
15394;DHT22;7795;47.986;11.868;2023-04-25T11:20:59;15.40;58.80
15394;DHT22;7795;47.986;11.868;2023-04-25T11:23:25;15.40;58.80
15394;DHT22;7795;47.986;11.868;2023-04-25T11:25:52;15.40;59.80
15394;DHT22;7795;47.986;11.868;2023-04-25T11:28:21;15.40;60.20
15394;DHT22;7795;47.986;11.868;2023-04-25T11:30:49;15.50;59.20
15394;DHT22;7795;47.986;11.868;2023-04-25T11:33:22;15.50;59.00
15394;DHT22;7795;47.986;11.868;2023-04-25T11:35:48;15.50;59.00
15394;DHT22;7795;47.986;11.868;2023-04-25T11:38:14;15.50;59.50
15394;DHT22;7795;47.986;11.868;2023-04-25T11:40:40;15.40;59.80
15394;DHT22;7795;47.986;11.868;2023-04-25T11:43:06;15.30;59.50
15394;DHT22;7795;47.986;11.868;2023-04-25T11:45:32;15.10;59.70
15394;DHT22;7795;47.986;11.868;2023-04-25T11:48:01;14.90;60.00
15394;DHT22;7795;47.986;11.868;2023-04-25T11:50:28;14.70;60.50
15394;DHT22;7795;47.986;11.868;2023-04-25T11:52:56;14.50;60.80
15394;DHT22;7795;47.986;11.868;2023-04-25T11:55:22;14.30;60.90
15394;DHT22;7795;47.986;11.868;2023-04-25T11:57:49;14.10;61.20
15394;DHT22;7795;47.986;11.868;2023-04-25T12:00:19;13.80;61.90
15394;DHT22;7795;47.986;11.868;2023-04-25T12:02:47;13.60;62.50
15394;DHT22;7795;47.986;11.868;2023-04-25T12:05:15;13.50;62.90
15394;DHT22;7795;47.986;11.868;2023-04-25T12:07:42;13.30;63.60
15394;DHT22;7795;47.986;11.868;2023-04-25T12:10:10;13.10;64.00
15394;DHT22;7795;47.986;11.868;2023-04-25T12:12:36;13.00;64.70
15394;DHT22;7795;47.986;11.868;2023-04-25T12:15:12;12.90;64.70
15394;DHT22;7795;47.986;11.868;2023-04-25T12:17:40;12.90;65.40
15394;DHT22;7795;47.986;11.868;2023-04-25T12:20:08;12.80;65.10
15394;DHT22;7795;47.986;11.868;2023-04-25T12:22:35;12.70;65.30
15394;DHT22;7795;47.986;11.868;2023-04-25T12:25:02;12.60;65.40
15394;DHT22;7795;47.986;11.868;2023-04-25T12:27:31;12.50;65.70
15394;DHT22;7795;47.986;11.868;2023-04-25T12:29:57;12.50;66.10
15394;DHT22;7795;47.986;11.868;2023-04-25T12:32:24;12.40;66.30
15394;DHT22;7795;47.986;11.868;2023-04-25T12:34:50;12.40;66.60
15394;DHT22;7795;47.986;11.868;2023-04-25T12:37:16;12.30;66.70
15394;DHT22;7795;47.986;11.868;2023-04-25T12:39:43;12.30;67.00
15394;DHT22;7795;47.986;11.868;2023-04-25T12:42:09;12.20;67.40
15394;DHT22;7795;47.986;11.868;2023-04-25T12:44:37;12.20;67.60
15394;DHT22;7795;47.986;11.868;2023-04-25T12:47:03;12.10;68.00
15394;DHT22;7795;47.986;11.868;2023-04-25T12:49:29;12.10;68.30
15394;DHT22;7795;47.986;11.868;2023-04-25T12:51:55;12.10;68.40
15394;DHT22;7795;47.986;11.868;2023-04-25T12:54:20;12.10;68.60
15394;DHT22;7795;47.986;11.868;2023-04-25T12:56:48;12.10;68.60
15394;DHT22;7795;47.986;11.868;2023-04-25T12:59:13;12.20;68.90
15394;DHT22;7795;47.986;11.868;2023-04-25T13:01:39;12.20;68.90
15394;DHT22;7795;47.986;11.868;2023-04-25T13:04:05;12.30;69.30
15394;DHT22;7795;47.986;11.868;2023-04-25T13:06:31;12.30;69.40
15394;DHT22;7795;47.986;11.868;2023-04-25T13:08:57;12.40;69.40
15394;DHT22;7795;47.986;11.868;2023-04-25T13:11:23;12.40;69.60
15394;DHT22;7795;47.986;11.868;2023-04-25T13:13:50;12.50;69.90
15394;DHT22;7795;47.986;11.868;2023-04-25T13:16:16;12.60;69.90
15394;DHT22;7795;47.986;11.868;2023-04-25T13:18:42;12.70;69.40
15394;DHT22;7795;47.986;11.868;2023-04-25T13:21:09;12.80;69.30
15394;DHT22;7795;47.986;11.868;2023-04-25T13:23:36;12.90;69.10
15394;DHT22;7795;47.986;11.868;2023-04-25T13:26:01;12.90;69.20
15394;DHT22;7795;47.986;11.868;2023-04-25T13:28:28;13.00;69.20
15394;DHT22;7795;47.986;11.868;2023-04-25T13:30:55;13.10;68.80
15394;DHT22;7795;47.986;11.868;2023-04-25T13:33:21;13.10;68.60
15394;DHT22;7795;47.986;11.868;2023-04-25T13:35:47;13.20;68.40
15394;DHT22;7795;47.986;11.868;2023-04-25T13:38:20;13.20;68.20
15394;DHT22;7795;47.986;11.868;2023-04-25T13:40:46;13.20;67.90
15394;DHT22;7795;47.986;11.868;2023-04-25T13:43:11;13.20;67.90
15394;DHT22;7795;47.986;11.868;2023-04-25T13:45:37;13.20;68.00
15394;DHT22;7795;47.986;11.868;2023-04-25T13:48:04;13.20;68.10
15394;DHT22;7795;47.986;11.868;2023-04-25T13:50:31;13.20;67.90
15394;DHT22;7795;47.986;11.868;2023-04-25T13:52:57;13.20;68.30
15394;DHT22;7795;47.986;11.868;2023-04-25T13:55:23;13.20;67.40
15394;DHT22;7795;47.986;11.868;2023-04-25T13:57:48;13.10;67.50
15394;DHT22;7795;47.986;11.868;2023-04-25T14:00:15;13.10;67.80
15394;DHT22;7795;47.986;11.868;2023-04-25T14:02:41;13.10;67.70
15394;DHT22;7795;47.986;11.868;2023-04-25T14:05:08;13.10;67.50
15394;DHT22;7795;47.986;11.868;2023-04-25T14:07:34;13.10;67.70
15394;DHT22;7795;47.986;11.868;2023-04-25T14:10:00;13.10;67.70
15394;DHT22;7795;47.986;11.868;2023-04-25T14:12:26;13.10;67.70
15394;DHT22;7795;47.986;11.868;2023-04-25T14:14:52;13.10;67.60
15394;DHT22;7795;47.986;11.868;2023-04-25T14:17:18;13.10;67.30
15394;DHT22;7795;47.986;11.868;2023-04-25T14:19:44;13.10;67.40
15394;DHT22;7795;47.986;11.868;2023-04-25T14:22:12;13.00;67.40
15394;DHT22;7795;47.986;11.868;2023-04-25T14:24:38;13.00;67.60
15394;DHT22;7795;47.986;11.868;2023-04-25T14:27:04;13.00;67.90
15394;DHT22;7795;47.986;11.868;2023-04-25T14:29:29;13.00;68.00
15394;DHT22;7795;47.986;11.868;2023-04-25T14:31:55;13.00;68.20
15394;DHT22;7795;47.986;11.868;2023-04-25T14:34:22;13.00;68.30
15394;DHT22;7795;47.986;11.868;2023-04-25T14:36:48;13.00;68.10
15394;DHT22;7795;47.986;11.868;2023-04-25T14:39:15;13.00;68.10
15394;DHT22;7795;47.986;11.868;2023-04-25T14:41:42;13.00;68.20
15394;DHT22;7795;47.986;11.868;2023-04-25T14:44:07;12.90;68.00
15394;DHT22;7795;47.986;11.868;2023-04-25T14:46:33;12.80;67.70
15394;DHT22;7795;47.986;11.868;2023-04-25T14:48:59;12.70;67.70
15394;DHT22;7795;47.986;11.868;2023-04-25T14:51:25;12.60;68.00
15394;DHT22;7795;47.986;11.868;2023-04-25T14:53:52;12.50;68.00
15394;DHT22;7795;47.986;11.868;2023-04-25T14:56:19;12.40;68.00
15394;DHT22;7795;47.986;11.868;2023-04-25T14:58:45;12.30;68.30
15394;DHT22;7795;47.986;11.868;2023-04-25T15:01:11;12.20;68.40
15394;DHT22;7795;47.986;11.868;2023-04-25T15:03:36;12.20;68.70
15394;DHT22;7795;47.986;11.868;2023-04-25T15:06:02;12.10;68.70
15394;DHT22;7795;47.986;11.868;2023-04-25T15:08:28;12.00;68.90
15394;DHT22;7795;47.986;11.868;2023-04-25T15:10:54;12.00;69.10
15394;DHT22;7795;47.986;11.868;2023-04-25T15:13:21;12.00;69.30
15394;DHT22;7795;47.986;11.868;2023-04-25T15:15:47;11.90;69.40
15394;DHT22;7795;47.986;11.868;2023-04-25T15:18:16;11.90;69.40
15394;DHT22;7795;47.986;11.868;2023-04-25T15:20:42;12.00;69.30
15394;DHT22;7795;47.986;11.868;2023-04-25T15:23:08;11.90;69.30
15394;DHT22;7795;47.986;11.868;2023-04-25T15:25:34;12.00;69.50